Time;durP1;ratioP1;P1;durP2;ratioP2;P2;SDS_P1;SDS_P2;PMS_P1;PMS_P2;Temp;Humidity;BMP_temperature;BMP_pressure;BME280_temperature;BME280_humidity;BME280_pressure;Samples;Min_cycle;Max_cycle;Signal;HPM_P1;HPM_P2
2022/03/25 00:01:49;;;;;;;;;;;11.60;76.80;;;;;;5029776;28;20513;-62
2022/03/25 00:04:18;;;;;;;;;;;11.70;78.20;;;;;;5026399;28;19959;-63
2022/03/25 00:06:47;;;;;;;;;;;11.70;77.50;;;;;;5025503;28;20066;-62
2022/03/25 00:09:16;;;;;;;;;;;11.70;78.50;;;;;;5026722;28;20390;-62
2022/03/25 00:11:43;;;;;;;;;;;11.70;79.30;;;;;;5025788;28;19963;-62
2022/03/25 00:14:11;;;;;;;;;;;11.70;77.60;;;;;;5028411;28;20513;-62
2022/03/25 00:16:39;;;;;;;;;;;11.60;80.50;;;;;;5026497;28;19983;-62
2022/03/25 00:19:07;;;;;;;;;;;11.50;79.00;;;;;;5026919;28;20070;-61
2022/03/25 00:21:35;;;;;;;;;;;11.50;78.70;;;;;;5025615;28;19970;-61
2022/03/25 00:24:03;;;;;;;;;;;11.40;81.40;;;;;;5025832;28;20346;-62
2022/03/25 00:26:32;;;;;;;;;;;11.30;80.90;;;;;;5022984;28;20405;-61
2022/03/25 00:29:00;;;;;;;;;;;11.30;82.70;;;;;;5023515;28;19996;-62
2022/03/25 00:31:28;;;;;;;;;;;11.10;81.20;;;;;;5028562;28;19967;-61
2022/03/25 00:33:55;;;;;;;;;;;11.10;81.50;;;;;;5023396;28;19967;-61
2022/03/25 00:36:24;;;;;;;;;;;10.90;81.80;;;;;;5028665;28;20332;-61
2022/03/25 00:38:52;;;;;;;;;;;10.90;82.80;;;;;;5020672;28;19966;-62
2022/03/25 00:41:22;;;;;;;;;;;10.80;82.20;;;;;;5025308;28;20009;-62
2022/03/25 00:43:53;;;;;;;;;;;10.80;78.60;;;;;;5027933;28;20343;-63
2022/03/25 00:46:21;;;;;;;;;;;10.70;80.10;;;;;;5022318;28;20385;-62
2022/03/25 00:48:49;;;;;;;;;;;10.70;82.90;;;;;;5021961;28;19970;-62
2022/03/25 00:51:17;;;;;;;;;;;10.80;82.50;;;;;;5025047;28;20029;-62
2022/03/25 00:53:45;;;;;;;;;;;10.80;83.60;;;;;;5022102;28;19959;-62
2022/03/25 00:56:13;;;;;;;;;;;10.80;81.60;;;;;;5026119;28;20010;-63
2022/03/25 00:58:42;;;;;;;;;;;10.80;81.40;;;;;;5026756;28;20692;-63
2022/03/25 01:01:11;;;;;;;;;;;10.90;83.00;;;;;;5020936;28;19963;-63
2022/03/25 01:03:39;;;;;;;;;;;10.80;83.50;;;;;;5025337;28;19967;-63
2022/03/25 01:06:07;;;;;;;;;;;10.80;77.20;;;;;;5028116;28;19963;-63
2022/03/25 01:08:35;;;;;;;;;;;10.70;81.80;;;;;;5024324;28;20017;-63
2022/03/25 01:11:04;;;;;;;;;;;10.60;83.60;;;;;;5025243;28;19974;-63
2022/03/25 01:13:33;;;;;;;;;;;10.70;82.90;;;;;;5026818;28;20013;-63
2022/03/25 01:16:02;;;;;;;;;;;10.70;81.40;;;;;;5027132;28;19990;-63
2022/03/25 01:18:31;;;;;;;;;;;10.80;84.30;;;;;;5020102;28;19966;-63
2022/03/25 01:20:59;;;;;;;;;;;10.80;83.90;;;;;;5026441;28;19972;-63
2022/03/25 01:23:27;;;;;;;;;;;10.80;83.00;;;;;;5023436;28;19967;-63
2022/03/25 01:25:54;;;;;;;;;;;10.70;82.40;;;;;;5031515;28;20490;-63
2022/03/25 01:28:23;;;;;;;;;;;10.70;84.50;;;;;;5027846;28;19967;-63
2022/03/25 01:30:51;;;;;;;;;;;10.80;85.80;;;;;;5027749;28;20013;-63
2022/03/25 01:33:19;;;;;;;;;;;10.80;85.30;;;;;;5030229;28;19963;-63
2022/03/25 01:35:48;;;;;;;;;;;10.80;85.40;;;;;;5020436;28;19994;-63
2022/03/25 01:38:16;;;;;;;;;;;10.90;85.70;;;;;;5029985;28;20018;-63
2022/03/25 01:40:43;;;;;;;;;;;10.90;84.80;;;;;;5029312;28;19959;-62
2022/03/25 01:43:11;;;;;;;;;;;10.90;86.50;;;;;;5030698;28;20440;-63
2022/03/25 01:45:40;;;;;;;;;;;10.80;88.00;;;;;;5033217;28;19959;-62
2022/03/25 01:48:09;;;;;;;;;;;10.70;87.90;;;;;;5026086;28;19974;-63
2022/03/25 01:50:37;;;;;;;;;;;10.60;88.10;;;;;;5028993;28;19959;-62
2022/03/25 01:53:09;;;;;;;;;;;10.60;89.90;;;;;;5028610;28;19963;-63
2022/03/25 01:55:37;;;;;;;;;;;10.50;90.00;;;;;;5026954;28;20014;-62
2022/03/25 01:58:06;;;;;;;;;;;10.50;87.80;;;;;;5026492;28;20042;-62
2022/03/25 02:00:34;;;;;;;;;;;10.30;90.30;;;;;;5030107;28;20507;-62
2022/03/25 02:03:02;;;;;;;;;;;10.30;91.00;;;;;;5031240;28;19963;-62
2022/03/25 02:05:30;;;;;;;;;;;10.40;90.40;;;;;;5023544;28;20306;-62
2022/03/25 02:07:58;;;;;;;;;;;10.30;90.50;;;;;;5031744;28;19971;-62
2022/03/25 02:10:27;;;;;;;;;;;10.20;90.90;;;;;;5027796;28;20018;-62
2022/03/25 02:12:55;;;;;;;;;;;10.10;91.80;;;;;;5026380;28;19959;-62
2022/03/25 02:15:33;;;;;;;;;;;10.10;91.40;;;;;;5028970;28;19959;-62
2022/03/25 02:18:05;;;;;;;;;;;10.10;91.90;;;;;;5024768;28;20021;-62
2022/03/25 02:20:33;;;;;;;;;;;10.00;93.20;;;;;;5019353;28;19963;-63
2022/03/25 02:23:02;;;;;;;;;;;9.90;93.20;;;;;;5029270;28;20058;-64
2022/03/25 02:25:30;;;;;;;;;;;10.00;92.70;;;;;;5026161;28;20009;-64
2022/03/25 02:27:59;;;;;;;;;;;10.00;92.50;;;;;;5030169;28;20439;-64
2022/03/25 02:30:27;;;;;;;;;;;10.10;92.50;;;;;;5029047;28;20377;-64
2022/03/25 02:32:57;;;;;;;;;;;10.10;93.30;;;;;;5026469;28;20405;-64
2022/03/25 02:35:35;;;;;;;;;;;10.20;92.80;;;;;;5023561;28;19986;-63
2022/03/25 02:38:04;;;;;;;;;;;10.10;92.80;;;;;;5030182;28;20342;-63
2022/03/25 02:40:33;;;;;;;;;;;10.10;93.20;;;;;;5026442;28;19971;-63
2022/03/25 02:43:00;;;;;;;;;;;10.00;93.10;;;;;;5023769;28;20053;-63
2022/03/25 02:45:28;;;;;;;;;;;10.00;93.60;;;;;;5026016;28;20001;-62
2022/03/25 02:47:56;;;;;;;;;;;9.90;94.80;;;;;;5027782;28;20054;-63
2022/03/25 02:50:25;;;;;;;;;;;9.80;93.70;;;;;;5026438;28;20050;-63
2022/03/25 02:52:53;;;;;;;;;;;9.70;94.70;;;;;;5029288;28;20053;-63
2022/03/25 02:55:22;;;;;;;;;;;9.70;95.30;;;;;;5025145;28;20046;-63
2022/03/25 02:57:50;;;;;;;;;;;9.60;95.40;;;;;;5022991;28;20085;-63
2022/03/25 03:00:19;;;;;;;;;;;9.60;94.50;;;;;;5028319;28;20706;-63
2022/03/25 03:02:48;;;;;;;;;;;9.60;95.20;;;;;;5030711;28;20777;-63
2022/03/25 03:05:17;;;;;;;;;;;9.60;96.20;;;;;;5020605;28;19959;-63
2022/03/25 03:07:46;;;;;;;;;;;9.70;95.10;;;;;;5028155;28;19963;-63
2022/03/25 03:10:14;;;;;;;;;;;9.60;96.90;;;;;;5031525;28;20061;-63
2022/03/25 03:12:43;;;;;;;;;;;9.60;96.10;;;;;;5022491;28;19959;-63
2022/03/25 03:15:11;;;;;;;;;;;9.60;95.60;;;;;;5028430;28;20065;-62
2022/03/25 03:17:39;;;;;;;;;;;9.60;95.90;;;;;;5021937;28;20499;-62
2022/03/25 03:20:08;;;;;;;;;;;9.50;95.60;;;;;;5029139;28;19967;-62
2022/03/25 03:22:36;;;;;;;;;;;9.50;96.50;;;;;;5031244;28;20041;-62
2022/03/25 03:25:04;;;;;;;;;;;9.60;95.80;;;;;;5025088;28;20058;-63
2022/03/25 03:27:32;;;;;;;;;;;9.60;95.40;;;;;;5012877;28;20101;-63
2022/03/25 03:30:01;;;;;;;;;;;9.70;95.60;;;;;;5025835;28;20447;-63
2022/03/25 03:32:29;;;;;;;;;;;9.60;96.20;;;;;;5027514;28;20324;-63
2022/03/25 03:34:56;;;;;;;;;;;9.50;96.80;;;;;;5024981;28;20483;-62
2022/03/25 03:37:24;;;;;;;;;;;9.40;96.40;;;;;;5027063;28;20057;-62
2022/03/25 03:39:52;;;;;;;;;;;9.40;96.90;;;;;;5025981;28;20009;-63
2022/03/25 03:42:20;;;;;;;;;;;9.40;97.30;;;;;;5028016;28;20054;-63
2022/03/25 03:44:48;;;;;;;;;;;9.40;96.30;;;;;;5028984;28;19994;-62
2022/03/25 03:47:17;;;;;;;;;;;9.50;96.10;;;;;;5023750;28;20046;-62
2022/03/25 03:49:44;;;;;;;;;;;9.40;96.60;;;;;;5026128;28;19959;-62
2022/03/25 03:52:12;;;;;;;;;;;9.40;96.20;;;;;;5025149;28;19991;-62
2022/03/25 03:54:40;;;;;;;;;;;9.40;96.90;;;;;;5024868;28;20054;-62
2022/03/25 03:57:08;;;;;;;;;;;9.30;97.60;;;;;;5021008;28;20005;-62
2022/03/25 03:59:36;;;;;;;;;;;9.30;97.30;;;;;;5022882;28;19959;-62
2022/03/25 04:02:04;;;;;;;;;;;9.30;97.40;;;;;;5026180;28;19963;-62
2022/03/25 04:04:33;;;;;;;;;;;9.30;97.90;;;;;;5025051;28;19959;-62
2022/03/25 04:07:01;;;;;;;;;;;9.30;97.40;;;;;;5025995;28;20078;-62
2022/03/25 04:09:29;;;;;;;;;;;9.30;96.90;;;;;;5018538;28;20057;-62
2022/03/25 04:11:57;;;;;;;;;;;9.10;98.40;;;;;;5053696;22;20057;-69
2022/03/25 04:14:24;;;;;;;;;;;9.20;97.80;;;;;;5028702;28;20520;-70
2022/03/25 04:16:52;;;;;;;;;;;9.10;98.90;;;;;;5026089;28;20492;-69
2022/03/25 04:19:20;;;;;;;;;;;9.10;98.20;;;;;;5028856;28;20414;-70
2022/03/25 04:21:49;;;;;;;;;;;9.10;98.50;;;;;;5030307;28;20379;-70
2022/03/25 04:24:17;;;;;;;;;;;9.00;98.50;;;;;;5028388;28;20406;-68
2022/03/25 04:26:44;;;;;;;;;;;9.00;98.20;;;;;;5025538;28;20033;-68
2022/03/25 04:29:12;;;;;;;;;;;9.00;98.70;;;;;;5027111;28;19967;-68
2022/03/25 04:31:40;;;;;;;;;;;9.00;98.20;;;;;;5027502;28;19974;-69
2022/03/25 04:34:08;;;;;;;;;;;9.00;97.60;;;;;;5021482;28;20490;-68
2022/03/25 04:36:36;;;;;;;;;;;8.90;99.00;;;;;;5027273;28;20041;-68
2022/03/25 04:39:05;;;;;;;;;;;8.90;99.30;;;;;;5028047;28;20054;-69
2022/03/25 04:41:32;;;;;;;;;;;8.90;97.90;;;;;;5029608;28;20081;-67
2022/03/25 04:44:00;;;;;;;;;;;8.90;99.00;;;;;;5027442;28;20500;-68
2022/03/25 04:46:28;;;;;;;;;;;8.90;98.10;;;;;;5027398;28;19963;-67
2022/03/25 04:48:56;;;;;;;;;;;8.90;99.00;;;;;;5023371;28;19960;-68
2022/03/25 04:51:23;;;;;;;;;;;8.90;97.80;;;;;;5023036;28;20408;-68
2022/03/25 04:53:51;;;;;;;;;;;8.90;98.50;;;;;;5029401;28;20062;-68
2022/03/25 04:56:20;;;;;;;;;;;8.90;99.10;;;;;;5026772;28;20448;-70
2022/03/25 04:58:48;;;;;;;;;;;9.00;98.00;;;;;;5020131;28;20094;-68
2022/03/25 05:01:16;;;;;;;;;;;8.90;98.80;;;;;;5027271;28;20436;-70
2022/03/25 05:03:44;;;;;;;;;;;8.90;98.30;;;;;;5026257;28;19963;-69
2022/03/25 05:06:12;;;;;;;;;;;8.90;99.50;;;;;;5027705;28;19970;-68
2022/03/25 05:08:41;;;;;;;;;;;8.90;99.70;;;;;;5029657;28;20003;-69
2022/03/25 05:11:09;;;;;;;;;;;8.90;99.20;;;;;;5028050;28;20017;-68
2022/03/25 05:13:38;;;;;;;;;;;8.90;99.40;;;;;;5025087;28;19987;-68
2022/03/25 05:16:06;;;;;;;;;;;8.90;99.40;;;;;;5026516;28;20006;-69
2022/03/25 05:18:34;;;;;;;;;;;8.80;99.80;;;;;;5026651;28;20517;-68
2022/03/25 05:21:02;;;;;;;;;;;8.80;99.60;;;;;;5020883;28;19963;-67
2022/03/25 05:23:29;;;;;;;;;;;8.80;99.90;;;;;;5019549;28;19959;-68
2022/03/25 05:25:57;;;;;;;;;;;8.80;99.90;;;;;;5028496;28;20045;-69
2022/03/25 05:28:27;;;;;;;;;;;8.80;99.90;;;;;;5023892;28;20346;-67
2022/03/25 05:30:56;;;;;;;;;;;8.80;99.90;;;;;;5028247;28;19994;-67
2022/03/25 05:33:24;;;;;;;;;;;8.70;99.90;;;;;;5027260;28;20436;-69
2022/03/25 05:35:52;;;;;;;;;;;8.80;99.40;;;;;;5028780;28;20483;-69
2022/03/25 05:38:19;;;;;;;;;;;8.80;99.90;;;;;;5026633;28;20416;-70
2022/03/25 05:40:48;;;;;;;;;;;8.80;99.90;;;;;;5025669;28;20061;-69
2022/03/25 05:43:16;;;;;;;;;;;8.80;99.90;;;;;;5026552;28;20054;-69
2022/03/25 05:45:44;;;;;;;;;;;8.70;99.90;;;;;;5024994;28;19998;-68
2022/03/25 05:48:13;;;;;;;;;;;8.80;99.90;;;;;;5026611;28;19963;-68
2022/03/25 05:50:40;;;;;;;;;;;8.80;99.90;;;;;;5026993;28;19959;-69
2022/03/25 05:53:08;;;;;;;;;;;8.90;99.90;;;;;;5027931;28;19967;-69
2022/03/25 05:55:39;;;;;;;;;;;8.90;99.80;;;;;;5027218;28;20320;-71
2022/03/25 05:58:07;;;;;;;;;;;9.00;99.90;;;;;;5029896;28;19969;-68
2022/03/25 06:00:36;;;;;;;;;;;9.00;99.90;;;;;;5024709;28;20050;-69
2022/03/25 06:03:04;;;;;;;;;;;9.00;99.90;;;;;;5026238;28;19971;-70
2022/03/25 06:05:34;;;;;;;;;;;9.00;99.90;;;;;;5024870;28;19966;-69
2022/03/25 06:08:01;;;;;;;;;;;9.00;99.90;;;;;;5029414;28;20007;-67
2022/03/25 06:10:29;;;;;;;;;;;9.10;99.90;;;;;;5029004;28;20661;-67
2022/03/25 06:12:57;;;;;;;;;;;9.00;99.90;;;;;;5027870;28;20049;-69
2022/03/25 06:15:24;;;;;;;;;;;9.00;99.90;;;;;;5025663;28;20002;-68
2022/03/25 06:17:53;;;;;;;;;;;9.10;99.90;;;;;;5027533;28;20431;-68
2022/03/25 06:20:23;;;;;;;;;;;9.30;99.90;;;;;;5031515;28;20101;-68
2022/03/25 06:22:52;;;;;;;;;;;9.30;99.90;;;;;;5031961;28;20034;-68
2022/03/25 06:25:20;;;;;;;;;;;9.30;99.90;;;;;;5035624;28;20458;-69
2022/03/25 06:27:49;;;;;;;;;;;9.50;99.90;;;;;;5021985;28;20017;-69
2022/03/25 06:30:16;;;;;;;;;;;9.60;99.90;;;;;;5025377;28;19967;-69
2022/03/25 06:32:44;;;;;;;;;;;9.70;99.90;;;;;;5027957;28;20474;-65
2022/03/25 06:35:12;;;;;;;;;;;9.90;99.80;;;;;;5028290;28;20404;-68
2022/03/25 06:37:40;;;;;;;;;;;9.90;98.60;;;;;;5024366;28;19963;-67
2022/03/25 06:40:10;;;;;;;;;;;9.90;97.90;;;;;;5029220;28;19963;-68
2022/03/25 06:42:39;;;;;;;;;;;9.90;98.60;;;;;;5025882;28;19963;-66
2022/03/25 06:45:08;;;;;;;;;;;9.90;99.90;;;;;;5027536;28;20389;-66
2022/03/25 06:47:36;;;;;;;;;;;10.00;98.90;;;;;;5027113;28;19989;-68
2022/03/25 06:50:04;;;;;;;;;;;10.20;99.90;;;;;;5030877;28;19978;-68
2022/03/25 06:52:33;;;;;;;;;;;10.40;99.00;;;;;;5028048;28;20335;-67
2022/03/25 06:55:01;;;;;;;;;;;10.50;96.20;;;;;;5028886;28;20098;-69
2022/03/25 06:57:30;;;;;;;;;;;10.70;96.30;;;;;;5031104;28;20014;-69
2022/03/25 06:59:58;;;;;;;;;;;10.60;93.90;;;;;;5025765;28;20062;-69
2022/03/25 07:02:26;;;;;;;;;;;10.50;94.00;;;;;;5023626;28;19999;-71
2022/03/25 07:04:54;;;;;;;;;;;10.60;99.00;;;;;;5029261;28;20475;-68
2022/03/25 07:07:26;;;;;;;;;;;10.80;98.80;;;;;;5028005;28;20405;-68
2022/03/25 07:09:54;;;;;;;;;;;11.00;98.20;;;;;;5028571;28;20076;-69
2022/03/25 07:12:22;;;;;;;;;;;11.20;95.10;;;;;;5030333;28;20464;-68
2022/03/25 07:14:51;;;;;;;;;;;11.30;95.50;;;;;;5028208;28;19967;-68
2022/03/25 07:17:19;;;;;;;;;;;11.40;93.30;;;;;;5029694;28;19959;-69
2022/03/25 07:19:47;;;;;;;;;;;11.30;92.90;;;;;;5026252;28;20053;-69
2022/03/25 07:22:15;;;;;;;;;;;11.20;92.10;;;;;;5027411;28;20594;-69
2022/03/25 07:24:42;;;;;;;;;;;11.20;92.60;;;;;;5030543;28;20082;-69
2022/03/25 07:27:10;;;;;;;;;;;11.20;92.60;;;;;;5030575;28;19963;-67
2022/03/25 07:29:38;;;;;;;;;;;11.20;91.60;;;;;;5026781;28;20057;-69
2022/03/25 07:32:08;;;;;;;;;;;11.20;95.10;;;;;;5025037;28;20080;-68
2022/03/25 07:34:37;;;;;;;;;;;11.40;92.00;;;;;;5026510;28;20015;-69
2022/03/25 07:37:05;;;;;;;;;;;11.40;92.80;;;;;;5031367;28;20050;-68
2022/03/25 07:39:34;;;;;;;;;;;11.60;93.60;;;;;;5027771;28;20061;-68
2022/03/25 07:42:01;;;;;;;;;;;11.60;91.40;;;;;;5029408;28;20592;-65
2022/03/25 07:44:29;;;;;;;;;;;11.90;92.80;;;;;;5025509;28;19963;-68
2022/03/25 07:46:57;;;;;;;;;;;12.00;92.20;;;;;;5029201;28;19959;-68
2022/03/25 07:49:26;;;;;;;;;;;12.10;92.30;;;;;;5027744;28;20045;-68
2022/03/25 07:51:53;;;;;;;;;;;12.20;91.50;;;;;;5024675;28;20049;-67
2022/03/25 07:54:21;;;;;;;;;;;12.40;90.90;;;;;;5026133;28;20395;-68
2022/03/25 07:56:49;;;;;;;;;;;12.70;90.40;;;;;;5027598;28;20013;-67
2022/03/25 07:59:16;;;;;;;;;;;12.70;90.10;;;;;;5030160;28;19999;-67
2022/03/25 08:01:44;;;;;;;;;;;12.80;90.10;;;;;;5029534;28;19986;-67
2022/03/25 08:04:13;;;;;;;;;;;12.70;90.00;;;;;;5029496;28;20086;-68
2022/03/25 08:06:42;;;;;;;;;;;12.70;89.50;;;;;;5025069;28;20020;-68
2022/03/25 08:09:11;;;;;;;;;;;13.00;91.00;;;;;;5026865;28;19963;-68
2022/03/25 08:11:39;;;;;;;;;;;13.20;90.30;;;;;;5024264;28;19973;-68
2022/03/25 08:14:07;;;;;;;;;;;13.30;89.80;;;;;;5025963;28;19967;-65
2022/03/25 08:16:35;;;;;;;;;;;13.30;89.50;;;;;;5028344;28;20107;-67
2022/03/25 08:19:03;;;;;;;;;;;13.40;88.80;;;;;;5031289;28;20462;-68
2022/03/25 08:21:30;;;;;;;;;;;13.50;88.40;;;;;;5032317;28;19963;-68
2022/03/25 08:29:30;;;;;;;;;;;14.00;88.80;;;;;;5032381;28;19967;-68
2022/03/25 08:31:57;;;;;;;;;;;14.00;87.70;;;;;;5031877;28;20066;-68
2022/03/25 08:34:25;;;;;;;;;;;14.30;87.80;;;;;;5031430;28;20021;-68
2022/03/25 08:36:53;;;;;;;;;;;14.50;87.00;;;;;;5032084;28;20079;-67
2022/03/25 08:39:23;;;;;;;;;;;14.70;86.20;;;;;;5031226;28;20014;-67
2022/03/25 08:41:51;;;;;;;;;;;14.50;85.40;;;;;;5031681;28;20439;-67
2022/03/25 08:44:19;;;;;;;;;;;14.70;86.70;;;;;;5031828;28;20001;-68
2022/03/25 08:46:47;;;;;;;;;;;15.00;85.00;;;;;;5031936;28;20334;-68
2022/03/25 08:49:15;;;;;;;;;;;15.20;85.20;;;;;;5031579;28;20425;-68
2022/03/25 08:51:42;;;;;;;;;;;15.40;85.00;;;;;;5031686;28;20002;-68
2022/03/25 08:54:10;;;;;;;;;;;15.60;84.10;;;;;;5031560;28;20029;-66
2022/03/25 08:56:39;;;;;;;;;;;15.90;83.20;;;;;;5031581;28;20050;-68
2022/03/25 08:59:07;;;;;;;;;;;16.00;82.90;;;;;;5031490;28;20009;-68
2022/03/25 09:01:36;;;;;;;;;;;16.10;82.80;;;;;;5027025;28;20841;-67
2022/03/25 09:04:04;;;;;;;;;;;16.00;82.60;;;;;;5023360;28;19966;-68
2022/03/25 09:06:32;;;;;;;;;;;15.80;83.90;;;;;;5029246;28;20028;-67
2022/03/25 09:08:59;;;;;;;;;;;16.00;84.20;;;;;;5028071;28;20094;-68
2022/03/25 09:11:27;;;;;;;;;;;16.30;83.40;;;;;;5026484;28;19998;-68
2022/03/25 09:13:57;;;;;;;;;;;16.40;83.50;;;;;;5027863;28;19963;-68
2022/03/25 09:16:24;;;;;;;;;;;16.60;81.80;;;;;;5027139;28;20070;-67
2022/03/25 09:18:52;;;;;;;;;;;16.80;81.70;;;;;;5030691;28;19985;-68
2022/03/25 09:21:21;;;;;;;;;;;16.90;82.60;;;;;;5027348;28;19971;-68
2022/03/25 09:23:48;;;;;;;;;;;17.00;79.30;;;;;;5027505;28;20904;-68
2022/03/25 09:26:17;;;;;;;;;;;17.20;80.60;;;;;;5024164;28;20983;-68
2022/03/25 09:28:44;;;;;;;;;;;17.40;78.90;;;;;;5029945;28;20070;-68
2022/03/25 09:31:14;;;;;;;;;;;17.70;77.50;;;;;;5030531;28;20086;-68
2022/03/25 09:36:43;;;;;;;;;;;17.70;75.10;;;;;;5025573;28;19970;-68
2022/03/25 09:39:11;;;;;;;;;;;17.90;74.40;;;;;;5031770;28;20065;-67
2022/03/25 09:41:38;;;;;;;;;;;17.80;73.70;;;;;;5029027;28;20046;-68
2022/03/25 09:44:06;;;;;;;;;;;18.00;74.60;;;;;;5027651;28;20048;-69
2022/03/25 09:46:41;;;;;;;;;;;18.00;74.00;;;;;;5029281;28;20062;-68
2022/03/25 09:49:09;;;;;;;;;;;18.20;74.00;;;;;;5032830;28;20040;-67
2022/03/25 09:51:40;;;;;;;;;;;18.40;71.90;;;;;;5033731;28;20838;-65
2022/03/25 09:54:09;;;;;;;;;;;18.30;70.80;;;;;;5033722;28;20061;-70
2022/03/25 09:56:37;;;;;;;;;;;18.50;70.30;;;;;;5029705;28;20094;-68
2022/03/25 09:59:06;;;;;;;;;;;18.70;70.00;;;;;;5033509;28;20504;-68
2022/03/25 10:01:36;;;;;;;;;;;18.60;70.10;;;;;;5033340;28;20049;-67
2022/03/25 10:04:05;;;;;;;;;;;18.70;68.70;;;;;;5031657;28;19967;-68
2022/03/25 10:06:45;;;;;;;;;;;18.90;69.40;;;;;;5033019;28;19971;-68
2022/03/25 10:09:21;;;;;;;;;;;19.30;68.70;;;;;;5034273;28;19971;-68
2022/03/25 10:11:48;;;;;;;;;;;19.50;67.50;;;;;;5033835;28;20062;-68
2022/03/25 10:14:18;;;;;;;;;;;19.60;66.30;;;;;;5033147;28;19970;-68
2022/03/25 10:16:49;;;;;;;;;;;19.50;67.10;;;;;;5030213;28;19973;-68
2022/03/25 10:19:18;;;;;;;;;;;19.60;67.10;;;;;;5031629;28;19973;-68
2022/03/25 10:21:55;;;;;;;;;;;19.70;66.40;;;;;;5034157;28;19973;-68
2022/03/25 10:24:36;;;;;;;;;;;19.60;67.30;;;;;;5033046;28;20058;-68
2022/03/25 10:27:13;;;;;;;;;;;19.90;67.50;;;;;;5029624;28;19973;-67
2022/03/25 10:29:44;;;;;;;;;;;20.20;66.60;;;;;;5031665;28;19989;-68
2022/03/25 10:32:14;;;;;;;;;;;20.30;65.20;;;;;;5032857;28;19971;-68
2022/03/25 10:34:43;;;;;;;;;;;20.60;64.10;;;;;;5031989;28;20821;-66
2022/03/25 10:37:12;;;;;;;;;;;20.60;66.30;;;;;;5032213;28;20761;-68
2022/03/25 10:39:40;;;;;;;;;;;20.50;65.60;;;;;;5029881;28;20745;-68
2022/03/25 10:42:08;;;;;;;;;;;20.60;65.00;;;;;;5030872;28;20043;-69
2022/03/25 10:44:41;;;;;;;;;;;20.70;63.40;;;;;;5025482;28;20312;-72
2022/03/25 10:47:31;;;;;;;;;;;20.80;63.50;;;;;;5030653;28;19925;-68
2022/03/25 10:50:13;;;;;;;;;;;21.00;64.10;;;;;;5030352;28;20554;-68
2022/03/25 10:52:41;;;;;;;;;;;20.90;63.10;;;;;;5032025;28;19935;-70
2022/03/25 10:55:20;;;;;;;;;;;21.20;64.10;;;;;;5029759;28;20031;-70
2022/03/25 10:57:52;;;;;;;;;;;21.30;64.50;;;;;;5029453;28;19959;-69
2022/03/25 11:00:20;;;;;;;;;;;21.10;62.20;;;;;;5031510;28;19924;-69
2022/03/25 11:02:49;;;;;;;;;;;21.00;61.30;;;;;;5030242;28;19935;-69
2022/03/25 11:05:18;;;;;;;;;;;21.10;63.60;;;;;;5029645;28;19929;-70
2022/03/25 11:07:47;;;;;;;;;;;21.20;61.80;;;;;;5029172;28;20781;-68
2022/03/25 11:10:17;;;;;;;;;;;21.30;61.40;;;;;;5024673;28;19929;-70
2022/03/25 11:12:46;;;;;;;;;;;21.30;60.30;;;;;;5029299;28;19990;-68
2022/03/25 11:15:14;;;;;;;;;;;21.00;61.20;;;;;;5028461;28;20402;-68
2022/03/25 11:17:43;;;;;;;;;;;21.10;60.60;;;;;;5030787;28;19928;-70
2022/03/25 11:20:13;;;;;;;;;;;21.00;60.30;;;;;;5029201;28;19960;-68
2022/03/25 11:22:43;;;;;;;;;;;21.30;61.90;;;;;;5027036;28;19928;-69
2022/03/25 11:25:14;;;;;;;;;;;21.40;60.20;;;;;;5029932;28;19928;-70
2022/03/25 11:27:42;;;;;;;;;;;21.40;60.60;;;;;;5029512;28;20051;-69
2022/03/25 11:30:13;;;;;;;;;;;21.90;61.60;;;;;;5032474;28;19928;-70
2022/03/25 11:32:47;;;;;;;;;;;22.10;59.20;;;;;;5030484;28;20522;-70
2022/03/25 11:35:17;;;;;;;;;;;21.90;61.10;;;;;;5029834;28;19935;-69
2022/03/25 11:37:45;;;;;;;;;;;22.00;60.30;;;;;;5031082;28;19928;-68
2022/03/25 11:40:25;;;;;;;;;;;22.00;59.40;;;;;;5031030;28;20024;-71
2022/03/25 11:42:54;;;;;;;;;;;22.00;60.00;;;;;;5029374;28;19959;-68
2022/03/25 11:45:33;;;;;;;;;;;22.00;59.20;;;;;;5026673;28;19925;-68
2022/03/25 11:48:19;;;;;;;;;;;22.10;58.40;;;;;;5027195;28;19937;-68
2022/03/25 11:50:55;;;;;;;;;;;22.00;59.60;;;;;;5027300;28;20039;-68
2022/03/25 11:53:29;;;;;;;;;;;21.90;58.90;;;;;;5028582;28;20384;-68
2022/03/25 11:55:59;;;;;;;;;;;22.10;59.40;;;;;;5028353;28;20472;-68
2022/03/25 11:58:27;;;;;;;;;;;22.00;59.20;;;;;;5025097;28;19925;-66
2022/03/25 12:01:17;;;;;;;;;;;22.40;59.40;;;;;;5029850;28;19936;-67
2022/03/25 12:03:47;;;;;;;;;;;22.80;59.00;;;;;;5029102;28;20394;-69
2022/03/25 12:06:17;;;;;;;;;;;22.80;58.40;;;;;;5025991;28;19936;-68
2022/03/25 12:08:57;;;;;;;;;;;23.10;58.60;;;;;;5029322;28;19929;-68
2022/03/25 12:11:43;;;;;;;;;;;22.90;58.00;;;;;;5029094;28;20074;-68
2022/03/25 12:14:11;;;;;;;;;;;22.80;58.60;;;;;;5026395;28;20344;-67
2022/03/25 12:16:55;;;;;;;;;;;23.00;59.40;;;;;;5027569;28;19925;-68
2022/03/25 12:19:41;;;;;;;;;;;23.30;59.10;;;;;;5027836;28;20003;-68
2022/03/25 12:22:25;;;;;;;;;;;23.10;56.40;;;;;;5027403;28;19925;-68
2022/03/25 12:24:55;;;;;;;;;;;23.10;56.90;;;;;;5026000;28;20043;-66
2022/03/25 12:27:23;;;;;;;;;;;23.00;57.50;;;;;;5028031;28;19925;-69
2022/03/25 12:29:52;;;;;;;;;;;23.10;56.80;;;;;;5031223;28;20595;-68
2022/03/25 12:32:20;;;;;;;;;;;23.00;57.60;;;;;;5028514;28;20040;-68
2022/03/25 12:34:53;;;;;;;;;;;23.30;58.00;;;;;;5024742;28;19928;-67
2022/03/25 12:37:23;;;;;;;;;;;23.60;57.00;;;;;;5025304;28;19935;-68
2022/03/25 12:39:51;;;;;;;;;;;23.60;57.20;;;;;;5024533;28;19924;-69
2022/03/25 12:42:20;;;;;;;;;;;23.60;57.20;;;;;;5029842;28;20423;-66
2022/03/25 12:44:53;;;;;;;;;;;23.70;56.10;;;;;;5025424;28;20769;-67
2022/03/25 12:47:29;;;;;;;;;;;23.40;55.20;;;;;;5028896;28;19930;-68
2022/03/25 12:49:57;;;;;;;;;;;23.80;56.90;;;;;;5028823;28;19925;-67
2022/03/25 12:52:25;;;;;;;;;;;24.10;55.90;;;;;;5028157;28;20400;-68
2022/03/25 12:54:53;;;;;;;;;;;24.00;55.50;;;;;;5024497;28;19925;-66
2022/03/25 12:57:32;;;;;;;;;;;24.20;56.50;;;;;;5030527;28;19983;-68
2022/03/25 12:59:59;;;;;;;;;;;24.20;56.00;;;;;;5027708;28;19964;-68
2022/03/25 13:02:31;;;;;;;;;;;23.90;54.40;;;;;;5027331;28;19963;-66
2022/03/25 13:05:06;;;;;;;;;;;23.40;55.00;;;;;;5025011;28;20097;-67
2022/03/25 13:07:34;;;;;;;;;;;23.40;54.80;;;;;;5027195;28;19935;-68
2022/03/25 13:10:02;;;;;;;;;;;23.60;54.20;;;;;;5028100;28;20704;-68
2022/03/25 13:12:30;;;;;;;;;;;23.70;54.70;;;;;;5026010;28;20055;-68
2022/03/25 13:14:59;;;;;;;;;;;23.90;54.30;;;;;;5024811;28;20695;-69
2022/03/25 13:17:34;;;;;;;;;;;23.80;54.40;;;;;;5022000;28;20190;-67
2022/03/25 13:20:03;;;;;;;;;;;23.90;55.00;;;;;;5030106;28;19933;-68
2022/03/25 13:22:31;;;;;;;;;;;23.80;54.80;;;;;;5030786;28;20044;-68
2022/03/25 13:24:59;;;;;;;;;;;23.90;54.90;;;;;;5029874;28;20399;-69
2022/03/25 13:27:27;;;;;;;;;;;24.10;54.00;;;;;;5030002;28;20015;-68
2022/03/25 13:29:55;;;;;;;;;;;23.60;54.00;;;;;;5033497;28;19925;-68
2022/03/25 13:32:32;;;;;;;;;;;23.30;54.50;;;;;;5028732;28;19925;-67
2022/03/25 13:35:07;;;;;;;;;;;23.40;54.50;;;;;;5026909;28;19998;-69
2022/03/25 13:37:35;;;;;;;;;;;23.60;54.40;;;;;;5034224;28;19986;-69
2022/03/25 13:40:03;;;;;;;;;;;23.70;54.00;;;;;;5032135;28;19929;-68
2022/03/25 13:42:32;;;;;;;;;;;23.80;53.50;;;;;;5029747;28;19929;-66
2022/03/25 13:45:10;;;;;;;;;;;24.00;53.60;;;;;;5021024;28;20028;-67
2022/03/25 13:47:39;;;;;;;;;;;23.80;53.30;;;;;;5033121;28;19929;-68
2022/03/25 13:50:17;;;;;;;;;;;23.70;53.70;;;;;;5033307;28;19947;-68
2022/03/25 13:52:55;;;;;;;;;;;23.70;54.00;;;;;;5030777;28;19929;-67
2022/03/25 13:55:31;;;;;;;;;;;23.60;53.60;;;;;;5030799;28;19933;-67
2022/03/25 13:57:59;;;;;;;;;;;23.30;54.00;;;;;;5026940;28;20428;-67
2022/03/25 14:00:31;;;;;;;;;;;23.30;53.80;;;;;;5032780;28;20017;-67
2022/03/25 14:03:00;;;;;;;;;;;23.20;53.90;;;;;;5033225;28;20764;-68
2022/03/25 14:05:28;;;;;;;;;;;23.30;53.70;;;;;;5029269;28;20210;-68
2022/03/25 14:07:57;;;;;;;;;;;23.30;53.50;;;;;;5029789;28;19951;-68
2022/03/25 14:10:25;;;;;;;;;;;23.50;53.20;;;;;;5031260;28;19931;-68
2022/03/25 14:13:01;;;;;;;;;;;23.70;53.90;;;;;;5029232;28;19935;-68
2022/03/25 14:15:42;;;;;;;;;;;23.60;54.00;;;;;;5032032;28;19932;-67
2022/03/25 14:18:34;;;;;;;;;;;23.70;53.80;;;;;;5032483;28;19976;-68
2022/03/25 14:21:02;;;;;;;;;;;23.50;53.70;;;;;;5031226;28;20408;-68
2022/03/25 14:23:31;;;;;;;;;;;23.60;53.50;;;;;;5031424;28;20060;-67
2022/03/25 14:25:59;;;;;;;;;;;23.30;53.30;;;;;;5030930;28;19929;-67
2022/03/25 14:28:28;;;;;;;;;;;23.10;53.60;;;;;;5031707;28;20053;-66
2022/03/25 14:31:02;;;;;;;;;;;23.00;53.90;;;;;;5028989;28;19931;-68
2022/03/25 14:33:31;;;;;;;;;;;22.90;54.20;;;;;;5030578;28;19998;-67
2022/03/25 14:35:59;;;;;;;;;;;23.20;54.70;;;;;;5027578;28;19937;-68
2022/03/25 14:38:27;;;;;;;;;;;23.40;52.90;;;;;;5033975;28;20003;-66
2022/03/25 14:40:54;;;;;;;;;;;23.30;53.50;;;;;;5029383;28;20474;-67
2022/03/25 14:43:22;;;;;;;;;;;23.30;53.20;;;;;;5031630;28;19924;-68